Time;durP1;ratioP1;P1;durP2;ratioP2;P2;SDS_P1;SDS_P2;PMS_P1;PMS_P2;Temp;Humidity;BMP_temperature;BMP_pressure;BME280_temperature;BME280_humidity;BME280_pressure;Samples;Min_cycle;Max_cycle;Signal;HPM_P1;HPM_P2
2021/06/29 07:17:37;;;;;;;5.22;2.42;;;;;;;;;;5699640;23;20074;-55
2021/06/29 07:20:04;;;;;;;3.95;2.50;;;;;;;;;;4992743;28;20035;-54
2021/06/29 07:22:30;;;;;;;2.90;1.90;;;;;;;;;;4991022;28;20053;-54
2021/06/29 07:24:56;;;;;;;2.22;1.60;;;;;;;;;;4991750;28;20026;-54
2021/06/29 07:27:22;;;;;;;3.13;2.15;;;;;;;;;;5000182;28;20061;-54
2021/06/29 07:29:49;;;;;;;3.33;2.03;;;;;;;;;;5011101;28;20084;-55
2021/06/29 07:32:15;;;;;;;2.40;2.00;;;;;;;;;;4984779;28;20121;-56
2021/06/29 07:34:41;;;;;;;2.22;1.50;;;;;;;;;;5006506;28;20360;-53
2021/06/29 07:37:07;;;;;;;4.43;1.85;;;;;;;;;;5009857;28;20033;-56
2021/06/29 07:39:34;;;;;;;3.00;1.98;;;;;;;;;;4979704;28;20387;-57
2021/06/29 07:42:00;;;;;;;2.55;1.58;;;;;;;;;;5006748;28;20019;-57
2021/06/29 07:44:26;;;;;;;2.10;1.70;;;;;;;;;;4974147;28;20045;-55
2021/06/29 07:46:53;;;;;;;3.38;1.70;;;;;;;;;;4974897;28;20513;-53
2021/06/29 07:49:22;;;;;;;2.40;1.83;;;;;;;;;;4992171;28;20105;-58
2021/06/29 07:51:48;;;;;;;4.32;1.77;;;;;;;;;;5011925;28;20856;-51
2021/06/29 07:54:14;;;;;;;4.20;2.33;;;;;;;;;;4992982;28;20018;-56
2021/06/29 07:56:40;;;;;;;2.85;1.50;;;;;;;;;;5007930;28;20032;-56
2021/06/29 07:59:06;;;;;;;2.42;1.65;;;;;;;;;;4980296;28;20030;-53
2021/06/29 08:01:32;;;;;;;1.77;1.33;;;;;;;;;;4990626;28;20464;-55
2021/06/29 08:03:58;;;;;;;1.90;1.30;;;;;;;;;;5005783;28;20083;-55
2021/06/29 08:06:24;;;;;;;2.33;1.27;;;;;;;;;;5010803;28;20527;-54
2021/06/29 08:08:50;;;;;;;2.10;1.50;;;;;;;;;;5010801;28;20018;-56
2021/06/29 08:11:16;;;;;;;2.80;2.00;;;;;;;;;;5008279;28;20135;-57
2021/06/29 08:13:43;;;;;;;3.47;1.50;;;;;;;;;;4989756;28;20049;-57
2021/06/29 08:16:09;;;;;;;2.50;1.60;;;;;;;;;;5009300;28;20030;-57
2021/06/29 08:18:36;;;;;;;2.05;1.50;;;;;;;;;;4991708;28;20050;-57
2021/06/29 08:21:03;;;;;;;2.38;1.63;;;;;;;;;;5006946;28;20107;-52
2021/06/29 08:23:30;;;;;;;1.75;1.35;;;;;;;;;;4991976;28;20038;-55
2021/06/29 08:25:56;;;;;;;1.90;1.45;;;;;;;;;;5007246;28;20062;-56
2021/06/29 08:28:22;;;;;;;1.85;1.40;;;;;;;;;;5009664;28;20030;-58
2021/06/29 08:30:50;;;;;;;2.22;1.48;;;;;;;;;;4992710;28;20443;-54
2021/06/29 08:33:20;;;;;;;2.47;1.50;;;;;;;;;;5009468;28;20040;-56
2021/06/29 08:35:47;;;;;;;3.15;1.30;;;;;;;;;;5006602;28;20107;-52
2021/06/29 08:38:13;;;;;;;1.90;1.40;;;;;;;;;;4991925;28;20084;-56
2021/06/29 08:40:40;;;;;;;2.45;1.27;;;;;;;;;;4990825;28;20022;-51
2021/06/29 08:43:07;;;;;;;1.65;1.33;;;;;;;;;;4989502;28;20160;-58
2021/06/29 08:45:34;;;;;;;2.05;1.60;;;;;;;;;;4990936;28;20045;-56
2021/06/29 08:48:01;;;;;;;1.80;1.38;;;;;;;;;;5009725;28;20378;-54
2021/06/29 08:50:31;;;;;;;1.70;1.30;;;;;;;;;;5009276;28;20021;-56
2021/06/29 08:52:58;;;;;;;3.45;1.50;;;;;;;;;;5007612;28;20505;-56
2021/06/29 08:55:28;;;;;;;2.70;1.58;;;;;;;;;;4985544;28;20611;-53
2021/06/29 08:57:54;;;;;;;2.60;1.20;;;;;;;;;;5019702;28;20034;-55
2021/06/29 09:00:20;;;;;;;1.80;1.33;;;;;;;;;;5004738;28;20018;-56
2021/06/29 09:02:46;;;;;;;2.20;1.60;;;;;;;;;;4986632;28;20072;-53
2021/06/29 09:05:23;;;;;;;2.88;1.23;;;;;;;;;;4992775;28;20041;-54
2021/06/29 09:08:06;;;;;;;1.80;1.25;;;;;;;;;;4997183;28;20118;-54
2021/06/29 09:10:33;;;;;;;1.98;1.35;;;;;;;;;;4990113;28;20206;-52
2021/06/29 09:13:00;;;;;;;2.15;1.30;;;;;;;;;;4985126;28;20049;-55
2021/06/29 09:15:27;;;;;;;1.80;1.30;;;;;;;;;;5005487;28;20036;-49
2021/06/29 09:17:54;;;;;;;1.73;1.45;;;;;;;;;;5011137;28;20159;-49
2021/06/29 09:20:20;;;;;;;;;;;;;;;;;;5009174;28;20030;-50
2021/06/29 09:22:46;;;;;;;1.87;1.30;;;;;;;;;;5001987;28;20363;-55
2021/06/29 09:25:22;;;;;;;2.05;1.27;;;;;;;;;;5001364;28;20173;-59
2021/06/29 09:27:50;;;;;;;1.65;1.20;;;;;;;;;;4990496;28;20139;-52
2021/06/29 09:30:35;;;;;;;2.08;1.40;;;;;;;;;;4988672;28;20498;-51
2021/06/29 09:33:03;;;;;;;1.63;1.30;;;;;;;;;;5007216;28;20137;-53
2021/06/29 09:35:30;;;;;;;1.50;1.20;;;;;;;;;;4990106;28;20379;-53
2021/06/29 09:37:57;;;;;;;1.65;1.40;;;;;;;;;;4990619;28;20354;-53
2021/06/29 09:40:25;;;;;;;2.10;1.42;;;;;;;;;;4972628;28;20475;-53
2021/06/29 09:42:51;;;;;;;1.70;1.05;;;;;;;;;;4989351;28;20039;-55
2021/06/29 09:45:37;;;;;;;3.15;1.30;;;;;;;;;;4981477;28;20138;-51
2021/06/29 09:48:09;;;;;;;2.00;1.23;;;;;;;;;;4984205;28;20046;-50
2021/06/29 09:50:35;;;;;;;2.13;1.48;;;;;;;;;;5007368;28;20589;-53
2021/06/29 09:53:38;;;;;;;1.85;1.25;;;;;;;;;;4996334;28;20503;-56
2021/06/29 09:56:05;;;;;;;2.65;1.38;;;;;;;;;;4953216;28;20042;-48
2021/06/29 09:58:32;;;;;;;1.60;1.40;;;;;;;;;;4974497;28;20155;-50
2021/06/29 10:01:00;;;;;;;1.70;1.15;;;;;;;;;;4984634;28;20039;-53
2021/06/29 10:03:26;;;;;;;;;;;;;;;;;;4996181;28;20093;-52
2021/06/29 10:05:53;;;;;;;2.00;1.30;;;;;;;;;;5008613;28;19996;-52
2021/06/29 10:08:35;;;;;;;2.20;1.25;;;;;;;;;;5006746;28;20546;-52
2021/06/29 10:11:04;;;;;;;2.33;1.10;;;;;;;;;;5011759;28;20124;-53
2021/06/29 10:13:35;;;;;;;2.30;1.42;;;;;;;;;;5003853;28;20067;-54
2021/06/29 10:16:01;;;;;;;2.50;1.50;;;;;;;;;;5007864;28;20034;-49
2021/06/29 10:18:30;;;;;;;2.30;1.33;;;;;;;;;;5001543;28;20665;-52
2021/06/29 10:20:59;;;;;;;1.60;1.10;;;;;;;;;;5003889;28;20175;-51
2021/06/29 10:23:26;;;;;;;2.25;1.30;;;;;;;;;;5000260;28;20049;-53
2021/06/29 10:25:53;;;;;;;1.50;1.00;;;;;;;;;;4999277;28;20045;-50
2021/06/29 10:28:19;;;;;;;2.03;1.25;;;;;;;;;;5008285;28;20093;-53
2021/06/29 10:30:46;;;;;;;2.28;1.30;;;;;;;;;;5010395;28;20034;-52
2021/06/29 10:33:13;;;;;;;1.83;1.30;;;;;;;;;;5006416;28;20045;-50
2021/06/29 10:35:39;;;;;;;1.60;1.20;;;;;;;;;;4986659;28;20049;-50
2021/06/29 10:38:05;;;;;;;1.60;1.30;;;;;;;;;;4991529;28;20030;-51
2021/06/29 10:40:32;;;;;;;3.03;1.25;;;;;;;;;;4990468;28;20109;-49
2021/06/29 10:43:00;;;;;;;1.75;1.40;;;;;;;;;;5023142;28;20112;-53
2021/06/29 10:45:35;;;;;;;1.95;1.40;;;;;;;;;;5021692;28;20161;-54
2021/06/29 10:48:37;;;;;;;2.03;1.20;;;;;;;;;;5010026;28;20359;-54
2021/06/29 10:51:04;;;;;;;1.55;1.00;;;;;;;;;;4931677;29;20294;-53
2021/06/29 10:53:45;;;;;;;1.90;1.30;;;;;;;;;;4986491;28;20038;-51
2021/06/29 10:56:16;;;;;;;2.03;1.50;;;;;;;;;;4999685;28;20045;-51
2021/06/29 10:58:49;;;;;;;1.92;1.20;;;;;;;;;;5006233;28;20104;-51
2021/06/29 11:01:26;;;;;;;2.20;1.40;;;;;;;;;;4993294;28;20345;-51
2021/06/29 11:03:53;;;;;;;2.15;1.60;;;;;;;;;;5001810;28;20032;-51
2021/06/29 11:06:42;;;;;;;2.10;1.40;;;;;;;;;;4999622;28;20097;-51
2021/06/29 11:09:09;;;;;;;2.00;1.25;;;;;;;;;;5000992;28;20064;-53
2021/06/29 11:11:35;;;;;;;1.40;1.30;;;;;;;;;;4978317;28;20029;-52
2021/06/29 11:14:02;;;;;;;2.90;1.45;;;;;;;;;;4977769;28;20038;-57
2021/06/29 11:16:46;;;;;;;2.38;1.50;;;;;;;;;;5000935;28;20410;-58
2021/06/29 11:19:12;;;;;;;1.80;1.20;;;;;;;;;;5004511;28;20127;-58
2021/06/29 11:21:39;;;;;;;1.60;1.20;;;;;;;;;;4998706;28;20037;-58
2021/06/29 11:24:24;;;;;;;2.57;1.27;;;;;;;;;;4990981;28;20078;-58
2021/06/29 11:26:50;;;;;;;1.67;1.30;;;;;;;;;;5004934;28;20026;-60
2021/06/29 11:29:16;;;;;;;2.83;1.23;;;;;;;;;;4990914;28;20034;-59
2021/06/29 11:31:42;;;;;;;2.78;1.13;;;;;;;;;;5004980;28;20172;-59
2021/06/29 11:34:10;;;;;;;;;;;;;;;;;;5005014;28;20488;-59
2021/06/29 11:36:39;;;;;;;1.65;1.17;;;;;;;;;;5011262;28;19918;-58
2021/06/29 11:39:14;;;;;;;2.25;1.20;;;;;;;;;;5013823;28;20034;-59
2021/06/29 11:41:43;;;;;;;1.80;1.38;;;;;;;;;;4997304;28;20082;-59
2021/06/29 11:44:09;;;;;;;1.98;1.23;;;;;;;;;;4991784;28;20026;-59
2021/06/29 11:46:47;;;;;;;2.33;1.58;;;;;;;;;;4986546;28;20030;-59
2021/06/29 11:49:15;;;;;;;2.00;1.08;;;;;;;;;;4991299;28;20026;-59
2021/06/29 11:51:51;;;;;;;2.17;1.27;;;;;;;;;;4989949;28;20136;-59
2021/06/29 11:54:28;;;;;;;1.77;1.30;;;;;;;;;;4985996;28;20037;-58
2021/06/29 11:56:55;;;;;;;2.65;1.42;;;;;;;;;;4995680;28;20041;-58
2021/06/29 11:59:21;;;;;;;;;;;;;;;;;;4996635;28;20041;-58
2021/06/29 12:01:57;;;;;;;2.27;1.30;;;;;;;;;;4996023;28;19909;-58
2021/06/29 12:04:24;;;;;;;1.80;1.40;;;;;;;;;;4992196;28;20434;-58
2021/06/29 12:07:00;;;;;;;2.20;1.15;;;;;;;;;;4991753;28;20034;-57
2021/06/29 12:09:37;;;;;;;2.25;1.23;;;;;;;;;;4992930;28;20021;-57
2021/06/29 12:12:15;;;;;;;2.30;1.30;;;;;;;;;;4987091;28;20151;-56
2021/06/29 12:14:42;;;;;;;1.55;1.30;;;;;;;;;;4983422;28;20018;-57
2021/06/29 12:17:08;;;;;;;2.88;1.20;;;;;;;;;;4990854;28;20142;-56
2021/06/29 12:19:34;;;;;;;1.48;1.10;;;;;;;;;;5006316;28;20049;-54
2021/06/29 12:22:00;;;;;;;3.08;1.42;;;;;;;;;;4994406;28;20030;-58
2021/06/29 12:24:26;;;;;;;2.45;1.20;;;;;;;;;;5001287;28;20066;-58
2021/06/29 12:26:52;;;;;;;3.47;1.50;;;;;;;;;;4979576;28;20030;-57
2021/06/29 12:29:36;;;;;;;2.10;1.20;;;;;;;;;;4991276;28;20046;-57
2021/06/29 12:32:19;;;;;;;3.95;1.23;;;;;;;;;;5008262;28;20022;-53
2021/06/29 12:34:45;;;;;;;3.47;1.33;;;;;;;;;;4992140;28;20021;-56
2021/06/29 12:37:12;;;;;;;5.33;1.47;;;;;;;;;;5009501;28;20148;-56
2021/06/29 12:39:38;;;;;;;2.80;1.37;;;;;;;;;;5003246;28;20332;-52
2021/06/29 12:42:08;;;;;;;1.80;1.20;;;;;;;;;;5000087;28;20435;-51
2021/06/29 12:44:34;;;;;;;1.92;1.20;;;;;;;;;;5008256;28;20339;-51
2021/06/29 12:47:00;;;;;;;1.95;1.27;;;;;;;;;;4995842;28;20038;-54
2021/06/29 12:49:27;;;;;;;2.58;1.35;;;;;;;;;;5017818;28;20029;-52
2021/06/29 12:51:56;;;;;;;1.60;1.20;;;;;;;;;;4992509;28;20121;-56
2021/06/29 12:54:24;;;;;;;1.50;1.08;;;;;;;;;;4997888;28;20029;-58
2021/06/29 12:56:54;;;;;;;2.35;1.35;;;;;;;;;;4992353;28;20120;-55
2021/06/29 12:59:21;;;;;;;1.65;1.10;;;;;;;;;;4990418;28;20466;-51
2021/06/29 13:01:52;;;;;;;1.88;1.20;;;;;;;;;;5002060;28;20022;-52
2021/06/29 13:04:20;;;;;;;3.22;1.30;;;;;;;;;;5009385;28;20399;-58
2021/06/29 13:06:48;;;;;;;2.67;1.20;;;;;;;;;;5008178;28;20026;-53
2021/06/29 13:09:15;;;;;;;2.30;1.35;;;;;;;;;;4975476;28;20045;-50
2021/06/29 13:11:51;;;;;;;3.22;1.23;;;;;;;;;;4982354;28;20538;-53
2021/06/29 13:14:17;;;;;;;1.83;1.33;;;;;;;;;;5007196;28;20813;-49
2021/06/29 13:16:43;;;;;;;2.15;1.40;;;;;;;;;;5009795;28;20053;-49
2021/06/29 13:19:20;;;;;;;2.00;1.23;;;;;;;;;;4990581;28;20169;-54
2021/06/29 13:21:54;;;;;;;2.00;1.10;;;;;;;;;;5009255;28;20025;-56
2021/06/29 13:24:20;;;;;;;2.47;1.30;;;;;;;;;;4989708;28;20125;-54
2021/06/29 13:26:54;;;;;;;1.77;1.10;;;;;;;;;;5010168;28;20030;-49
2021/06/29 13:29:25;;;;;;;2.33;1.38;;;;;;;;;;4990222;28;20115;-54
2021/06/29 13:31:51;;;;;;;2.28;1.35;;;;;;;;;;4991471;28;20124;-53
2021/06/29 13:34:23;;;;;;;3.73;1.53;;;;;;;;;;5007209;28;20489;-56
2021/06/29 13:36:52;;;;;;;5.38;1.77;;;;;;;;;;5006486;28;20376;-58
2021/06/29 13:39:25;;;;;;;1.75;1.20;;;;;;;;;;4995958;28;20057;-56
2021/06/29 13:41:51;;;;;;;2.13;1.40;;;;;;;;;;4995141;28;20030;-56
2021/06/29 13:44:17;;;;;;;1.85;1.25;;;;;;;;;;4992033;28;20030;-54
2021/06/29 13:46:44;;;;;;;1.70;1.27;;;;;;;;;;4993076;28;20154;-50
2021/06/29 13:49:14;;;;;;;2.65;1.50;;;;;;;;;;5004781;28;20030;-58
2021/06/29 13:51:40;;;;;;;2.45;1.40;;;;;;;;;;4999915;28;20030;-57
2021/06/29 13:54:22;;;;;;;1.77;1.25;;;;;;;;;;5003096;28;20039;-51
2021/06/29 13:56:49;;;;;;;2.30;1.30;;;;;;;;;;4993552;28;20033;-58
2021/06/29 13:59:48;;;;;;;2.20;1.50;;;;;;;;;;5012117;28;20026;-58
2021/06/29 14:02:14;;;;;;;2.05;1.50;;;;;;;;;;4980245;28;20058;-59
2021/06/29 14:04:52;;;;;;;2.40;1.20;;;;;;;;;;5011928;28;20030;-57
2021/06/29 14:07:18;;;;;;;2.95;1.40;;;;;;;;;;5012926;28;20457;-56
2021/06/29 14:09:44;;;;;;;2.25;1.50;;;;;;;;;;5013188;28;20037;-56
2021/06/29 14:12:20;;;;;;;2.25;1.40;;;;;;;;;;4999360;28;20100;-54
2021/06/29 14:14:47;;;;;;;1.95;1.40;;;;;;;;;;5012220;28;20025;-56
2021/06/29 14:17:13;;;;;;;1.70;1.30;;;;;;;;;;5017000;28;20042;-55
2021/06/29 14:19:39;;;;;;;2.20;1.40;;;;;;;;;;5012863;28;20046;-53
2021/06/29 14:22:16;;;;;;;2.07;1.50;;;;;;;;;;5012863;28;20055;-50
2021/06/29 14:24:43;;;;;;;2.30;1.55;;;;;;;;;;4993187;28;20034;-56
2021/06/29 14:27:09;;;;;;;2.33;1.33;;;;;;;;;;4994314;28;20435;-54
2021/06/29 14:29:37;;;;;;;2.88;1.30;;;;;;;;;;5012059;28;20092;-59
2021/06/29 14:32:03;;;;;;;2.47;1.30;;;;;;;;;;5012699;28;20061;-57
2021/06/29 14:34:30;;;;;;;3.40;1.43;;;;;;;;;;5008033;28;20030;-59
2021/06/29 14:36:56;;;;;;;2.37;1.47;;;;;;;;;;5011742;28;20293;-55
2021/06/29 14:39:22;;;;;;;2.50;1.40;;;;;;;;;;4991289;28;20018;-55
2021/06/29 14:41:48;;;;;;;2.85;1.45;;;;;;;;;;5014912;28;20026;-58
2021/06/29 14:44:14;;;;;;;1.67;1.40;;;;;;;;;;5003857;28;20100;-58
2021/06/29 14:46:40;;;;;;;4.25;1.50;;;;;;;;;;5001138;28;20034;-58
2021/06/29 14:49:06;;;;;;;2.50;1.20;;;;;;;;;;4993750;28;20044;-58
2021/06/29 14:51:33;;;;;;;2.53;1.30;;;;;;;;;;5007726;28;20458;-55
2021/06/29 14:53:59;;;;;;;1.70;1.30;;;;;;;;;;5007598;28;20034;-61
2021/06/29 14:56:25;;;;;;;4.38;1.40;;;;;;;;;;4991723;28;20042;-53
2021/06/29 14:58:59;;;;;;;3.85;1.42;;;;;;;;;;5011773;28;20052;-55
2021/06/29 15:01:25;;;;;;;1.83;1.25;;;;;;;;;;4989742;28;20029;-55
2021/06/29 15:03:51;;;;;;;1.95;1.30;;;;;;;;;;4992931;28;20045;-54
2021/06/29 15:06:17;;;;;;;1.58;1.30;;;;;;;;;;5008269;28;20073;-58
2021/06/29 15:08:46;;;;;;;2.10;1.30;;;;;;;;;;4985985;28;20065;-56
2021/06/29 15:11:19;;;;;;;1.80;1.30;;;;;;;;;;5008844;28;20067;-54
2021/06/29 15:13:46;;;;;;;1.67;1.10;;;;;;;;;;4990432;28;20027;-56
2021/06/29 15:16:13;;;;;;;1.50;1.10;;;;;;;;;;4987193;28;20041;-56
2021/06/29 15:18:39;;;;;;;2.08;1.30;;;;;;;;;;5010365;28;20038;-56
2021/06/29 15:21:08;;;;;;;2.55;1.40;;;;;;;;;;5011609;28;20092;-55
2021/06/29 15:23:34;;;;;;;2.10;1.30;;;;;;;;;;4993562;28;20379;-55
2021/06/29 15:26:00;;;;;;;2.33;1.30;;;;;;;;;;4994174;28;20030;-58
2021/06/29 15:28:26;;;;;;;2.50;1.30;;;;;;;;;;4998462;28;20070;-57
2021/06/29 15:30:52;;;;;;;1.97;1.40;;;;;;;;;;4999550;28;20057;-55
2021/06/29 15:33:18;;;;;;;1.58;1.40;;;;;;;;;;5006359;28;20106;-56
2021/06/29 15:35:45;;;;;;;2.05;1.35;;;;;;;;;;5010429;28;20115;-54
2021/06/29 15:38:11;;;;;;;1.67;1.37;;;;;;;;;;5000971;28;20026;-54
2021/06/29 15:40:37;;;;;;;1.73;1.17;;;;;;;;;;4990277;28;20034;-53
2021/06/29 15:43:03;;;;;;;2.28;1.45;;;;;;;;;;5010774;28;20061;-50
2021/06/29 15:45:30;;;;;;;2.05;1.25;;;;;;;;;;4982850;28;20034;-47
2021/06/29 15:47:56;;;;;;;2.13;1.35;;;;;;;;;;4993913;28;20026;-47
